Time;durP1;ratioP1;P1;durP2;ratioP2;P2;SDS_P1;SDS_P2;PMS_P1;PMS_P2;Temp;Humidity;BMP_temperature;BMP_pressure;BME280_temperature;BME280_humidity;BME280_pressure;Samples;Min_cycle;Max_cycle;Signal;HPM_P1;HPM_P2
2023/01/14 00:00:52;;;;;;;61.35;18.00;;;;;;;-1.04;100.00;99055.16;5159273;27;20047;-69
2023/01/14 00:03:18;;;;;;;55.97;17.85;;;;;;;-0.99;100.00;99050.50;5159508;27;20047;-68
2023/01/14 00:05:57;;;;;;;65.35;16.85;;;;;;;-1.04;100.00;99050.56;5159129;27;20061;-67
2023/01/14 00:08:24;;;;;;;60.40;18.58;;;;;;;-0.75;100.00;99052.31;5159560;27;20392;-64
2023/01/14 00:10:50;;;;;;;66.47;18.38;;;;;;;-0.87;100.00;99047.34;5159100;27;20381;-72
2023/01/14 00:13:17;;;;;;;60.13;17.77;;;;;;;-0.96;100.00;99065.28;5159207;27;20053;-66
2023/01/14 00:15:52;;;;;;;60.05;17.58;;;;;;;-0.77;100.00;99054.47;5159072;27;20057;-72
2023/01/14 00:18:19;;;;;;;61.13;17.77;;;;;;;-0.86;100.00;99059.75;5158987;27;20057;-67
2023/01/14 00:20:58;;;;;;;61.83;18.23;;;;;;;-0.85;100.00;99066.72;5159294;27;20055;-67
2023/01/14 00:23:25;;;;;;;70.32;17.45;;;;;;;-1.00;100.00;99070.44;5158763;27;20137;-73
2023/01/14 00:25:52;;;;;;;59.17;17.58;;;;;;;-0.86;100.00;99067.03;5159161;27;20138;-67
2023/01/14 00:28:19;;;;;;;54.50;16.92;;;;;;;-0.78;100.00;99074.44;5158722;27;20065;-74
2023/01/14 00:30:45;;;;;;;68.68;18.25;;;;;;;-0.76;100.00;99075.75;5159194;27;20400;-65
2023/01/14 00:33:12;;;;;;;58.38;16.73;;;;;;;-0.83;100.00;99067.25;5158562;27;20051;-72
2023/01/14 00:35:38;;;;;;;51.13;16.27;;;;;;;-0.95;100.00;99072.25;5158652;27;20436;-65
2023/01/14 00:38:04;;;;;;;54.63;17.13;;;;;;;-0.89;100.00;99065.72;5158827;27;20062;-73
2023/01/14 00:40:30;;;;;;;52.17;16.08;;;;;;;-0.80;100.00;99069.34;5158563;27;20085;-64
2023/01/14 00:42:57;;;;;;;53.55;16.25;;;;;;;-0.77;100.00;99054.47;5158834;27;20301;-73
2023/01/14 00:45:24;;;;;;;47.13;15.85;;;;;;;-0.95;100.00;99059.59;5158693;27;20063;-64
2023/01/14 00:47:52;;;;;;;50.30;15.57;;;;;;;-0.62;100.00;99043.50;5158688;27;20054;-69
2023/01/14 00:50:18;;;;;;;51.50;16.38;;;;;;;-0.87;100.00;99047.34;5158539;27;20050;-73
2023/01/14 00:52:45;;;;;;;46.80;14.77;;;;;;;-0.89;100.00;99046.88;5158246;27;20086;-66
2023/01/14 00:55:11;;;;;;;59.22;16.77;;;;;;;-0.88;100.00;99047.66;5157643;27;20057;-69
2023/01/14 00:57:37;;;;;;;30.10;10.85;;;;;;;-0.97;100.00;99037.56;5158765;27;20146;-66
2023/01/14 01:00:04;;;;;;;35.90;13.48;;;;;;;-0.91;100.00;99034.78;5158281;27;20064;-72
2023/01/14 01:02:31;;;;;;;47.85;15.95;;;;;;;-0.77;100.00;99031.09;5158655;27;20116;-64
2023/01/14 01:04:57;;;;;;;33.65;12.80;;;;;;;-0.71;100.00;99029.09;5158221;27;20107;-68
2023/01/14 01:07:23;;;;;;;46.95;15.10;;;;;;;-0.73;100.00;99034.00;5158330;27;20051;-69
2023/01/14 01:09:49;;;;;;;42.00;11.20;;;;;;;-0.90;100.00;99037.22;5158342;27;20042;-69
2023/01/14 01:12:16;;;;;;;44.70;14.20;;;;;;;-0.86;100.00;99037.41;5158292;27;20050;-72
2023/01/14 01:14:42;;;;;;;32.75;12.45;;;;;;;-0.71;100.00;99024.50;5158317;27;20047;-66
2023/01/14 01:17:08;;;;;;;41.70;11.93;;;;;;;-0.87;100.00;99031.22;5158222;27;20137;-71
2023/01/14 01:19:35;;;;;;;36.70;11.23;;;;;;;-0.68;100.00;99030.41;5158415;27;20073;-65
2023/01/14 01:22:01;;;;;;;36.33;12.45;;;;;;;-0.82;100.00;99030.34;5158063;27;20050;-72
2023/01/14 01:24:28;;;;;;;34.63;12.20;;;;;;;-0.83;100.00;99029.56;5158297;27;20468;-66
2023/01/14 01:26:54;;;;;;;30.27;12.25;;;;;;;-0.81;100.00;99023.88;5157821;27;20379;-72
2023/01/14 01:29:20;;;;;;;33.30;11.80;;;;;;;-0.82;100.00;99019.59;5158335;27;20054;-65
2023/01/14 01:31:46;;;;;;;32.47;10.75;;;;;;;-0.90;100.00;99017.53;5157727;27;20174;-73
2023/01/14 01:34:12;;;;;;;26.75;8.93;;;;;;;-0.89;100.00;99009.19;5157816;27;20057;-65
2023/01/14 01:36:39;;;;;;;37.67;11.85;;;;;;;-0.71;100.00;99002.16;5158089;27;20110;-73
2023/01/14 01:39:06;;;;;;;34.28;11.27;;;;;;;-0.81;100.00;99007.72;5157702;27;20047;-66
2023/01/14 01:41:32;;;;;;;27.60;10.98;;;;;;;-0.90;100.00;99009.47;5157950;27;20050;-71
2023/01/14 01:44:04;;;;;;;27.10;9.70;;;;;;;-0.78;100.00;99002.53;5157843;27;20336;-71
2023/01/14 01:46:31;;;;;;;31.35;11.90;;;;;;;-0.79;100.00;99008.25;5157713;27;20046;-73
2023/01/14 01:49:02;;;;;;;25.10;11.13;;;;;;;-0.69;100.00;99001.88;5157635;27;20055;-71
2023/01/14 01:51:32;;;;;;;28.10;9.48;;;;;;;-0.76;100.00;99007.66;5158071;27;20061;-72
2023/01/14 01:54:00;;;;;;;30.38;11.10;;;;;;;-0.83;100.00;99008.03;5157587;27;20141;-73
2023/01/14 01:56:30;;;;;;;25.10;8.80;;;;;;;-0.95;100.00;99011.16;5157993;27;20051;-72
2023/01/14 01:58:58;;;;;;;33.38;11.68;;;;;;;-0.75;100.00;98998.47;5157826;27;20133;-66
2023/01/14 02:01:25;;;;;;;32.75;12.35;;;;;;;-0.67;100.00;98995.09;5157651;27;20487;-65
2023/01/14 02:03:52;;;;;;;29.17;10.52;;;;;;;-0.83;100.00;99008.03;5157466;27;20047;-64
2023/01/14 02:06:19;;;;;;;31.25;10.05;;;;;;;-0.55;100.00;99008.09;5157419;27;20154;-65
2023/01/14 02:08:50;;;;;;;25.75;10.45;;;;;;;-0.55;100.00;99003.53;5161090;27;20054;-73
2023/01/14 02:11:54;;;;;;;22.52;9.82;;;;;;;-0.79;100.00;99021.69;5161150;27;20137;-71
2023/01/14 02:14:36;;;;;;;28.15;10.68;;;;;;;-0.57;100.00;99021.84;5161474;27;20134;-66
2023/01/14 02:17:11;;;;;;;26.70;10.38;;;;;;;-0.46;100.00;99021.72;5161196;27;20050;-69
2023/01/14 02:20:05;;;;;;;29.70;10.05;;;;;;;-0.37;100.00;99023.41;5161159;27;20082;-69
2023/01/14 02:23:00;;;;;;;28.10;10.77;;;;;;;-0.48;100.00;99030.06;5161103;27;20190;-72
2023/01/14 02:25:57;;;;;;;27.85;10.50;;;;;;;-0.47;100.00;99037.03;5147704;27;20054;-64
2023/01/14 02:28:38;;;;;;;28.23;10.80;;;;;;;-0.55;100.00;99041.22;5160874;27;20051;-72
2023/01/14 02:31:12;;;;;;;30.88;10.68;;;;;;;-0.51;100.00;99052.19;5160854;27;20051;-68
2023/01/14 02:33:46;;;;;;;25.30;11.00;;;;;;;-0.58;100.00;99041.00;5160691;27;20107;-69
2023/01/14 02:36:17;;;;;;;;;;;;;;;-0.62;100.00;99037.31;5161347;27;20047;-72
2023/01/14 02:38:52;;;;;;;25.65;9.48;;;;;;;-0.52;100.00;99034.44;5160669;27;19945;-72
2023/01/14 02:44:06;;;;;;;24.92;11.30;;;;;;;-0.49;100.00;99031.16;5161077;27;20089;-65
2023/01/14 02:44:13;;;;;;;23.17;10.40;;;;;;;-0.58;100.00;99035.63;5160395;27;20323;-69
2023/01/14 02:46:44;;;;;;;32.50;10.93;;;;;;;-0.44;100.00;99023.00;5160401;27;20423;-71
2023/01/14 02:49:14;;;;;;;16.50;7.38;;;;;;;-0.68;100.00;99036.59;5160566;27;20047;-73
2023/01/14 02:51:42;;;;;;;24.10;9.85;;;;;;;-0.44;100.00;99025.69;5160534;27;20069;-69
2023/01/14 02:54:08;;;;;;;30.90;10.48;;;;;;;-0.43;100.00;99013.84;5160788;27;20461;-67
2023/01/14 02:56:35;;;;;;;23.83;10.30;;;;;;;-0.32;100.00;99015.25;5160180;27;20102;-69
2023/01/14 02:59:35;;;;;;;19.83;8.95;;;;;;;-0.44;100.00;99017.59;5160736;27;20134;-72
2023/01/14 03:02:32;;;;;;;27.95;10.00;;;;;;;-0.54;100.00;99029.34;5144406;27;20055;-65
2023/01/14 03:05:11;;;;;;;22.52;10.77;;;;;;;-0.43;100.00;99019.22;5160186;27;20057;-71
2023/01/14 03:07:43;;;;;;;29.40;11.27;;;;;;;-0.32;100.00;99009.84;5160390;27;20046;-73
2023/01/14 03:10:17;;;;;;;32.90;12.57;;;;;;;-0.35;100.00;99031.19;5160127;27;20046;-66
2023/01/14 03:12:47;;;;;;;24.08;9.93;;;;;;;-0.29;100.00;99036.19;5160478;27;20086;-71
2023/01/14 03:15:23;;;;;;;20.08;9.30;;;;;;;-0.24;100.00;99032.63;5159898;27;20093;-66
2023/01/14 03:17:58;;;;;;;17.73;7.75;;;;;;;-0.42;100.00;99044.25;5159390;27;20054;-70
2023/01/14 03:20:28;;;;;;;24.30;10.35;;;;;;;-0.28;100.00;99039.69;5160273;27;20078;-74
2023/01/14 03:22:57;;;;;;;16.67;8.25;;;;;;;-0.45;100.00;99044.84;5159992;27;20047;-72
2023/01/14 03:25:25;;;;;;;18.92;7.65;;;;;;;-0.45;100.00;99039.47;5160129;27;20047;-73
2023/01/14 03:27:56;;;;;;;19.33;8.77;;;;;;;-0.26;100.00;99040.22;5159800;27;20046;-68
2023/01/14 03:30:30;;;;;;;21.85;9.10;;;;;;;-0.15;100.00;99043.53;5160095;27;20046;-73
2023/01/14 03:33:00;;;;;;;20.63;8.57;;;;;;;-0.20;100.00;99041.72;5159721;27;20046;-66
2023/01/14 03:35:31;;;;;;;16.83;7.32;;;;;;;-0.39;100.00;99057.13;5160165;27;20043;-72
2023/01/14 03:38:02;;;;;;;17.52;8.45;;;;;;;-0.32;100.00;99052.16;5159939;27;20073;-72
2023/01/14 03:40:30;;;;;;;21.30;7.95;;;;;;;-0.29;100.00;99052.38;5159671;27;20054;-73
2023/01/14 03:43:05;;;;;;;18.92;7.93;;;;;;;-0.26;100.00;99061.75;5159903;27;20054;-72
2023/01/14 03:45:35;;;;;;;18.83;7.57;;;;;;;-0.27;100.00;99052.88;5159658;27;20050;-72
2023/01/14 03:48:03;;;;;;;14.35;7.38;;;;;;;-0.30;100.00;99058.03;5159685;27;20051;-65
2023/01/14 03:50:36;;;;;;;16.27;7.63;;;;;;;-0.20;100.00;99054.38;5159456;27;20042;-69
2023/01/14 03:53:15;;;;;;;20.35;8.52;;;;;;;-0.27;100.00;99058.28;5159413;27;20134;-69
2023/01/14 03:55:50;;;;;;;19.27;8.30;;;;;;;-0.16;100.00;99050.81;5159189;27;20061;-70
2023/01/14 03:58:23;;;;;;;20.95;10.43;;;;;;;-0.26;100.00;99061.75;5159555;27;20051;-66
2023/01/14 04:00:54;;;;;;;22.55;8.73;;;;;;;-0.03;100.00;99049.22;5159593;27;20057;-64
2023/01/14 04:03:22;;;;;;;21.50;8.13;;;;;;;-0.21;100.00;99060.88;5159286;27;20130;-73
2023/01/14 04:05:49;;;;;;;26.52;9.00;;;;;;;-0.15;100.00;99051.59;5159513;27;20451;-69
2023/01/14 04:08:18;;;;;;;18.02;8.43;;;;;;;-0.11;100.00;99053.38;5158991;27;20046;-70
2023/01/14 04:10:44;;;;;;;19.52;8.93;;;;;;;-0.12;100.00;99064.47;5159503;27;20046;-68
2023/01/14 04:15:58;;;;;;;24.92;9.73;;;;;;;0.01;100.00;99074.50;5159529;27;20054;-66
2023/01/14 04:18:25;;;;;;;22.60;8.15;;;;;;;-0.27;100.00;99070.91;5159223;27;20050;-71
2023/01/14 04:20:51;;;;;;;18.02;8.20;;;;;;;-0.12;100.00;99072.56;5158851;27;20051;-72
2023/01/14 04:23:18;;;;;;;25.25;10.23;;;;;;;-0.18;100.00;99069.16;5158944;27;20053;-65
2023/01/14 04:25:46;;;;;;;23.10;9.73;;;;;;;-0.18;100.00;99062.97;5158937;27;20228;-72
2023/01/14 04:28:12;;;;;;;24.30;10.15;;;;;;;-0.10;100.00;99060.41;5158874;27;20474;-69
2023/01/14 04:30:40;;;;;;;16.23;8.02;;;;;;;0.17;100.00;99059.63;5157900;27;20137;-69
2023/01/14 04:33:06;;;;;;;23.10;8.52;;;;;;;-0.05;100.00;99078.38;5158787;27;20388;-73
2023/01/14 04:35:33;;;;;;;20.42;9.15;;;;;;;0.06;100.00;99087.84;5158682;27;20093;-64
2023/01/14 04:37:59;;;;;;;19.40;8.95;;;;;;;-0.11;100.00;99088.44;5158942;27;20479;-73
2023/01/14 04:40:25;;;;;;;20.15;8.38;;;;;;;-0.08;100.00;99084.34;5158507;27;20054;-67
2023/01/14 04:42:52;;;;;;;19.90;6.80;;;;;;;-0.03;100.00;99095.84;5159061;27;20078;-70
2023/01/14 04:45:18;;;;;;;22.45;10.23;;;;;;;0.03;100.00;99098.44;5158438;27;20415;-66
2023/01/14 04:47:44;;;;;;;27.00;10.10;;;;;;;0.02;100.00;99096.84;5158259;27;20050;-68
2023/01/14 04:50:31;;;;;;;20.23;9.23;;;;;;;-0.07;100.00;99092.16;5158743;27;20047;-69
2023/01/14 04:53:03;;;;;;;19.45;8.13;;;;;;;-0.14;100.00;99080.94;5158576;27;20046;-68
2023/01/14 04:55:30;;;;;;;20.73;8.27;;;;;;;-0.07;100.00;99075.16;5158603;27;20083;-72
2023/01/14 04:57:56;;;;;;;22.08;9.13;;;;;;;-0.10;100.00;99063.09;5158428;27;20055;-66
2023/01/14 05:00:22;;;;;;;20.83;9.13;;;;;;;-0.03;100.00;99063.50;5158379;27;20053;-72
2023/01/14 05:02:48;;;;;;;20.77;9.32;;;;;;;-0.03;100.00;99055.41;5158151;27;20047;-71
2023/01/14 05:05:15;;;;;;;22.00;9.88;;;;;;;-0.05;100.00;99054.91;5158678;27;20057;-69
2023/01/14 05:07:41;;;;;;;24.20;10.02;;;;;;;0.02;100.00;99059.13;5158087;27;20074;-71
2023/01/14 05:10:09;;;;;;;19.75;9.60;;;;;;;0.05;100.00;99059.31;5158163;27;20042;-67
2023/01/14 05:12:35;;;;;;;22.27;9.23;;;;;;;-0.12;100.00;99056.41;5158260;27;20049;-71
2023/01/14 05:15:01;;;;;;;20.85;7.95;;;;;;;-0.20;100.00;99065.97;5158271;27;20054;-66
2023/01/14 05:17:27;;;;;;;19.48;9.35;;;;;;;-0.01;100.00;99053.22;5158341;27;20051;-71
2023/01/14 05:19:54;;;;;;;20.17;8.80;;;;;;;-0.13;100.00;99047.53;5158193;27;20420;-66
2023/01/14 05:22:20;;;;;;;22.85;8.90;;;;;;;-0.09;100.00;99043.13;5158411;27;20089;-72
2023/01/14 05:24:46;;;;;;;21.42;9.43;;;;;;;-0.02;100.00;99035.44;5158044;27;20042;-66
2023/01/14 05:27:14;;;;;;;28.15;10.23;;;;;;;-0.01;100.00;99038.94;5158188;27;20051;-65
2023/01/14 05:29:40;;;;;;;22.23;10.88;;;;;;;0.22;100.00;99047.94;5157888;27;20093;-68
2023/01/14 05:32:06;;;;;;;19.27;9.52;;;;;;;0.06;100.00;99047.44;5158204;27;20142;-69
2023/01/14 05:34:32;;;;;;;22.58;9.45;;;;;;;0.27;100.00;99045.16;5157876;27;20051;-68
2023/01/14 05:36:58;;;;;;;20.02;8.90;;;;;;;0.01;100.00;99063.72;5158346;27;20308;-69
2023/01/14 05:39:25;;;;;;;22.75;9.43;;;;;;;0.23;100.00;99060.31;5157819;27;20050;-65
2023/01/14 05:47:20;;;;;;;40.83;10.88;;;;;;;0.06;100.00;99071.69;5161767;27;20058;-70
2023/01/14 05:49:46;;;;;;;23.05;10.15;;;;;;;-0.07;100.00;99070.59;5161749;27;20404;-67
2023/01/14 05:52:12;;;;;;;23.15;10.50;;;;;;;0.02;100.00;99069.91;5161253;27;20089;-71
2023/01/14 05:54:39;;;;;;;23.00;9.98;;;;;;;0.23;100.00;99073.78;5161703;27;20046;-73
2023/01/14 05:57:12;;;;;;;23.05;8.60;;;;;;;-0.03;100.00;99078.88;5161185;27;20111;-65
2023/01/14 05:59:39;;;;;;;20.25;9.13;;;;;;;0.10;100.00;99079.97;5161469;27;20042;-66
2023/01/14 06:07:34;;;;;;;21.48;9.50;;;;;;;0.15;100.00;99071.81;5161499;27;20065;-71
2023/01/14 06:10:00;;;;;;;16.75;8.77;;;;;;;0.29;100.00;99069.91;5161106;27;20386;-67
2023/01/14 06:12:57;;;;;;;17.92;8.30;;;;;;;0.50;100.00;99073.03;5161443;27;20056;-69
2023/01/14 06:15:23;;;;;;;22.60;9.27;;;;;;;0.35;100.00;99095.69;5160772;27;20046;-72
2023/01/14 06:17:57;;;;;;;19.90;8.93;;;;;;;0.48;100.00;99096.78;5160947;27;20059;-67
2023/01/14 06:20:24;;;;;;;18.40;8.40;;;;;;;0.32;100.00;99117.06;5161003;27;20062;-69
2023/01/14 06:22:50;;;;;;;20.90;9.32;;;;;;;0.34;100.00;99114.88;5160831;27;20448;-71
2023/01/14 06:25:16;;;;;;;18.83;9.15;;;;;;;0.34;100.00;99123.75;5161113;27;20046;-69
2023/01/14 06:27:42;;;;;;;20.13;8.05;;;;;;;0.20;100.00;99122.91;5160826;27;20111;-68
2023/01/14 06:30:15;;;;;;;15.57;8.75;;;;;;;0.20;100.00;99128.31;5161026;27;20376;-69
2023/01/14 06:32:42;;;;;;;19.33;9.13;;;;;;;0.24;100.00;99126.66;5160697;27;20051;-66
2023/01/14 06:35:09;;;;;;;23.63;9.77;;;;;;;0.42;100.00;99116.88;5160532;27;20082;-71
2023/01/14 06:37:35;;;;;;;18.92;8.82;;;;;;;0.27;100.00;99117.97;5160551;27;20069;-67
2023/01/14 06:40:01;;;;;;;16.20;7.72;;;;;;;0.16;100.00;99122.72;5161002;27;20043;-71
2023/01/14 06:42:27;;;;;;;20.50;8.45;;;;;;;0.23;100.00;99116.94;5160754;27;20047;-67
2023/01/14 06:44:54;;;;;;;19.20;8.90;;;;;;;0.12;100.00;99116.31;5160458;27;20482;-71
2023/01/14 06:47:20;;;;;;;16.88;8.05;;;;;;;0.16;100.00;99103.03;5160355;27;20043;-69
2023/01/14 06:49:47;;;;;;;19.05;8.25;;;;;;;0.36;100.00;99102.66;5160250;27;20446;-71
2023/01/14 06:52:13;;;;;;;17.45;8.75;;;;;;;0.37;100.00;99104.28;5159832;27;20065;-69
2023/01/14 06:54:39;;;;;;;13.98;7.57;;;;;;;0.36;100.00;99109.97;5159938;27;20133;-68
2023/01/14 06:57:08;;;;;;;20.50;8.50;;;;;;;0.60;100.00;99107.06;5160503;27;20138;-72
2023/01/14 06:59:34;;;;;;;18.13;8.23;;;;;;;0.40;100.00;99111.78;5160064;27;20046;-67
2023/01/14 07:02:00;;;;;;;13.88;7.90;;;;;;;0.40;100.00;99122.56;5160408;27;20058;-71
2023/01/14 07:04:27;;;;;;;16.95;8.27;;;;;;;0.27;100.00;99120.66;5160089;27;20073;-67
2023/01/14 07:06:54;;;;;;;13.98;7.15;;;;;;;0.39;100.00;99117.47;5160585;27;20058;-65
2023/01/14 07:09:20;;;;;;;18.65;9.60;;;;;;;0.52;100.00;99121.25;5159833;27;20054;-69
2023/01/14 07:11:47;;;;;;;15.93;8.90;;;;;;;0.33;100.00;99122.13;5160182;27;20042;-71
2023/01/14 07:14:13;;;;;;;18.60;8.55;;;;;;;0.43;100.00;99126.53;5160247;27;20140;-66
2023/01/14 07:16:40;;;;;;;16.58;8.48;;;;;;;0.45;100.00;99125.16;5160040;27;20424;-71
2023/01/14 07:19:06;;;;;;;13.77;7.90;;;;;;;0.36;100.00;99132.34;5160132;27;20319;-65
2023/01/14 07:21:33;;;;;;;14.73;7.50;;;;;;;0.44;100.00;99131.66;5158860;27;20082;-72
2023/01/14 07:24:00;;;;;;;15.18;7.57;;;;;;;0.31;100.00;99135.13;5160133;27;20053;-65
2023/01/14 07:26:26;;;;;;;16.40;8.15;;;;;;;0.45;100.00;99130.56;5159740;27;20051;-72
2023/01/14 07:28:54;;;;;;;17.13;8.40;;;;;;;0.39;100.00;99141.72;5160019;27;20146;-65
2023/01/14 07:31:20;;;;;;;20.75;8.60;;;;;;;0.46;100.00;99144.84;5159747;27;20051;-67
2023/01/14 07:33:47;;;;;;;16.08;8.45;;;;;;;0.52;100.00;99156.34;5160026;27;20058;-72
2023/01/14 07:36:13;;;;;;;16.88;9.10;;;;;;;0.65;100.00;99148.25;5159673;27;20046;-68
2023/01/14 07:38:40;;;;;;;17.45;8.68;;;;;;;0.74;100.00;99144.88;5159929;27;20055;-69
2023/01/14 07:41:09;;;;;;;27.10;8.93;;;;;;;0.58;100.00;99160.53;5159594;27;20108;-69
2023/01/14 07:43:36;;;;;;;23.42;9.32;;;;;;;0.46;100.00;99169.91;5159771;27;20383;-70
2023/01/14 07:46:02;;;;;;;24.20;10.23;;;;;;;0.55;100.00;99166.53;5159593;27;20133;-64
2023/01/14 07:48:28;;;;;;;19.83;8.02;;;;;;;0.50;100.00;99172.84;5159376;27;20055;-71
2023/01/14 07:50:54;;;;;;;18.95;9.23;;;;;;;0.69;100.00;99170.81;5159662;27;20062;-68
2023/01/14 07:53:24;;;;;;;18.50;9.98;;;;;;;0.57;100.00;99183.22;5159254;27;20047;-69
2023/01/14 07:55:50;;;;;;;19.50;8.73;;;;;;;0.49;100.00;99189.28;5159758;27;20050;-65
2023/01/14 07:58:17;;;;;;;24.88;9.75;;;;;;;0.43;100.00;99188.56;5159321;27;20051;-69
2023/01/14 08:00:43;;;;;;;19.88;8.88;;;;;;;0.57;100.00;99184.03;5159742;27;20046;-68
2023/01/14 08:03:09;;;;;;;21.35;10.60;;;;;;;0.74;100.00;99179.94;5159419;27;20051;-68
2023/01/14 08:05:36;;;;;;;21.38;10.25;;;;;;;1.10;100.00;99185.41;5159811;27;20379;-68
2023/01/14 08:08:02;;;;;;;21.65;11.23;;;;;;;0.97;100.00;99210.50;5159450;27;20377;-72
2023/01/14 08:10:28;;;;;;;21.73;10.70;;;;;;;1.12;100.00;99219.13;5159306;27;20054;-66
2023/01/14 08:12:54;;;;;;;27.73;12.15;;;;;;;0.73;100.00;99232.28;5159238;27;20093;-72
2023/01/14 08:15:21;;;;;;;25.77;11.77;;;;;;;0.99;100.00;99228.00;5159269;27;20065;-67
2023/01/14 08:17:47;;;;;;;25.85;12.00;;;;;;;0.79;100.00;99244.59;5159321;27;20062;-69
2023/01/14 08:20:14;;;;;;;22.17;11.90;;;;;;;0.90;100.00;99254.91;5159280;27;20061;-69
2023/01/14 08:22:41;;;;;;;35.10;13.82;;;;;;;0.58;100.00;99266.56;5159284;27;20050;-66
2023/01/14 08:25:08;;;;;;;35.40;14.70;;;;;;;0.94;100.00;99247.03;5159093;27;20095;-72
2023/01/14 08:27:34;;;;;;;27.45;13.43;;;;;;;0.68;100.00;99266.38;5159306;27;20046;-71
2023/01/14 08:30:01;;;;;;;29.63;13.45;;;;;;;0.61;100.00;99251.69;5159695;27;20108;-64
2023/01/14 08:32:28;;;;;;;29.30;13.20;;;;;;;0.66;100.00;99243.47;5159961;27;20138;-65
2023/01/14 08:34:54;;;;;;;31.25;13.30;;;;;;;0.99;100.00;99228.00;5159325;27;20053;-68
2023/01/14 08:37:20;;;;;;;30.15;13.48;;;;;;;0.56;100.00;99249.84;5158581;27;20134;-69
2023/01/14 08:39:46;;;;;;;37.47;12.85;;;;;;;0.66;100.00;99238.06;5158713;27;20048;-69
2023/01/14 08:42:13;;;;;;;38.50;13.55;;;;;;;0.75;100.00;99225.50;5158565;27;20111;-69
2023/01/14 08:44:39;;;;;;;34.90;14.98;;;;;;;0.70;100.00;99229.13;5158414;27;20046;-65
2023/01/14 08:47:05;;;;;;;28.75;13.00;;;;;;;0.69;100.00;99249.06;5158343;27;20051;-67
2023/01/14 08:49:32;;;;;;;30.13;13.52;;;;;;;1.04;100.00;99244.13;5158538;27;20061;-71
2023/01/14 08:51:59;;;;;;;26.98;12.63;;;;;;;0.88;100.00;99248.22;5158423;27;20060;-69
2023/01/14 08:54:25;;;;;;;34.17;14.07;;;;;;;1.05;100.00;99247.63;5158565;27;20408;-73
2023/01/14 08:56:54;;;;;;;48.85;13.40;;;;;;;1.10;100.00;99253.75;5158319;27;20434;-64
2023/01/14 08:59:20;;;;;;;45.58;14.85;;;;;;;1.12;100.00;99277.72;5158685;27;20055;-64
2023/01/14 09:01:46;;;;;;;31.52;13.60;;;;;;;0.96;100.00;99292.59;5157973;27;20111;-72
2023/01/14 09:04:13;;;;;;;31.08;13.18;;;;;;;1.04;100.00;99305.44;5158089;27;20133;-65
2023/01/14 09:17:37;;;;;;;;;;;;;;;0.96;100.00;99301.50;5158600;27;20089;-68
2023/01/14 09:20:04;;;;;;;33.40;12.73;;;;;;;0.88;100.00;99308.41;5157819;27;19927;-66
2023/01/14 09:22:32;;;;;;;31.73;13.38;;;;;;;0.54;100.00;99300.63;5158183;27;20050;-69
2023/01/14 09:24:59;;;;;;;30.10;12.63;;;;;;;0.38;100.00;99288.47;5158001;27;20047;-68
2023/01/14 09:27:25;;;;;;;40.78;13.52;;;;;;;0.69;100.00;99267.16;5157552;27;20061;-72
2023/01/14 09:29:52;;;;;;;39.60;14.15;;;;;;;1.07;100.00;99250.84;5158244;27;20051;-66
2023/01/14 09:32:18;;;;;;;38.20;14.05;;;;;;;1.33;100.00;99246.53;5157677;27;20428;-70
2023/01/14 09:34:49;;;;;;;42.95;13.40;;;;;;;1.01;100.00;99254.72;5158070;27;20046;-66
2023/01/14 09:37:16;;;;;;;34.42;12.13;;;;;;;0.77;100.00;99273.78;5157754;27;20047;-72
2023/01/14 09:39:42;;;;;;;35.03;14.38;;;;;;;0.62;100.00;99269.47;5158055;27;20051;-68
2023/01/14 09:42:14;;;;;;;37.88;14.57;;;;;;;1.02;100.00;99243.63;5157662;27;20069;-73
2023/01/14 09:44:41;;;;;;;30.42;14.32;;;;;;;1.27;100.00;99245.03;5158085;27;20137;-67
2023/01/14 09:47:10;;;;;;;44.28;15.48;;;;;;;0.71;100.00;99254.19;5157626;27;20453;-71
2023/01/14 09:49:36;;;;;;;37.28;13.70;;;;;;;0.58;100.00;99252.25;5157650;27;20051;-72
2023/01/14 09:52:15;;;;;;;35.92;14.10;;;;;;;0.69;100.00;99230.19;5157757;27;20110;-65
2023/01/14 09:54:51;;;;;;;41.35;16.70;;;;;;;0.70;100.00;99223.72;5157376;27;20468;-66
2023/01/14 09:57:22;;;;;;;37.72;15.18;;;;;;;1.15;100.00;99212.31;5157575;27;20058;-72
2023/01/14 09:59:57;;;;;;;46.45;17.10;;;;;;;1.28;100.00;99237.72;5157346;27;20050;-70
2023/01/14 10:02:27;;;;;;;33.25;15.55;;;;;;;0.76;100.00;99254.09;5157692;27;20102;-71
2023/01/14 10:05:14;;;;;;;37.83;15.55;;;;;;;0.67;100.00;99251.28;5157214;27;20103;-72
2023/01/14 10:07:43;;;;;;;37.67;13.40;;;;;;;0.83;100.00;99241.00;5157178;27;20047;-64
2023/01/14 10:10:21;;;;;;;43.72;14.15;;;;;;;1.02;100.00;99229.31;5157518;27;20118;-66
2023/01/14 10:12:49;;;;;;;42.03;15.13;;;;;;;1.07;100.00;99240.84;5157183;27;20043;-69
2023/01/14 10:15:35;;;;;;;41.72;14.27;;;;;;;1.07;100.00;99237.34;5157262;27;20060;-65
2023/01/14 10:18:10;;;;;;;38.05;13.98;;;;;;;1.01;100.00;99244.72;5157408;27;20047;-73
2023/01/14 10:20:48;;;;;;;37.75;14.05;;;;;;;0.81;100.00;99258.59;5157361;27;20042;-69
2023/01/14 10:23:18;;;;;;;33.95;14.30;;;;;;;1.11;100.00;99249.13;5157025;27;20472;-65
2023/01/14 10:25:49;;;;;;;36.17;16.77;;;;;;;1.57;100.00;99265.22;5157054;27;20066;-68
2023/01/14 10:28:18;;;;;;;42.58;15.10;;;;;;;1.61;100.00;99289.72;5158417;27;20464;-71
2023/01/14 10:30:48;;;;;;;29.02;13.23;;;;;;;1.52;100.00;99305.03;5160741;27;20062;-64
2023/01/14 10:33:16;;;;;;;35.35;15.32;;;;;;;1.43;100.00;99315.72;5160997;27;20081;-68
2023/01/14 10:35:44;;;;;;;29.35;14.15;;;;;;;1.07;100.00;99332.63;5160531;27;20051;-69
2023/01/14 10:38:17;;;;;;;33.05;14.07;;;;;;;1.40;100.00;99316.34;5160675;27;20099;-71
2023/01/14 10:40:44;;;;;;;43.50;15.40;;;;;;;1.31;100.00;99326.25;5160580;27;20396;-70
2023/01/14 10:43:21;;;;;;;52.92;16.42;;;;;;;1.17;100.00;99320.84;5160772;27;20082;-73
2023/01/14 10:45:48;;;;;;;42.83;16.27;;;;;;;1.30;100.00;99325.47;5160400;27;20051;-64
2023/01/14 10:48:20;;;;;;;31.60;15.23;;;;;;;0.73;100.00;99324.03;5160277;27;20069;-71
2023/01/14 10:50:47;;;;;;;37.85;15.00;;;;;;;1.19;100.00;99288.94;5160687;27;20328;-73
2023/01/14 10:53:21;;;;;;;48.75;14.25;;;;;;;0.88;100.00;99286.81;5160553;27;20046;-69
2023/01/14 10:55:54;;;;;;;47.92;16.45;;;;;;;0.82;100.00;99273.69;5160557;27;20119;-68
2023/01/14 10:58:30;;;;;;;35.10;14.30;;;;;;;1.11;100.00;99249.94;5160335;27;20061;-68
2023/01/14 11:01:03;;;;;;;32.35;14.43;;;;;;;1.11;100.00;99254.53;5160623;27;20050;-68
2023/01/14 11:03:32;;;;;;;41.55;14.70;;;;;;;1.03;100.00;99258.72;5160142;27;20057;-68
2023/01/14 11:06:00;;;;;;;35.47;13.55;;;;;;;0.53;100.00;99258.53;5160422;27;20061;-68
2023/01/14 11:08:33;;;;;;;37.40;15.05;;;;;;;0.75;100.00;99227.41;5160108;27;20047;-65
2023/01/14 11:11:03;;;;;;;46.27;14.33;;;;;;;0.65;100.00;99206.81;5160357;27;20043;-73
2023/01/14 11:13:32;;;;;;;44.90;16.40;;;;;;;0.58;100.00;99193.72;5160240;27;20061;-64
2023/01/14 11:15:59;;;;;;;46.65;16.35;;;;;;;1.15;100.00;99179.91;5159949;27;20127;-73
2023/01/14 11:18:28;;;;;;;77.00;16.05;;;;;;;0.77;100.00;99184.72;5159888;27;20061;-72
2023/01/14 11:21:02;;;;;;;47.33;15.88;;;;;;;0.94;100.00;99177.63;5160038;27;20051;-72
2023/01/14 11:23:30;;;;;;;66.10;18.73;;;;;;;0.96;100.00;99193.53;5160419;27;20130;-70
2023/01/14 11:25:59;;;;;;;67.18;16.90;;;;;;;0.94;100.00;99201.13;5159837;27;20133;-71
2023/01/14 11:28:26;;;;;;;46.05;17.67;;;;;;;1.10;100.00;99193.50;5159822;27;20344;-68
2023/01/14 11:30:54;;;;;;;37.25;16.02;;;;;;;1.11;100.00;99197.84;5159856;27;20173;-70
2023/01/14 11:33:23;;;;;;;46.35;15.30;;;;;;;0.90;100.00;99203.63;5159967;27;20304;-69
2023/01/14 11:35:51;;;;;;;52.03;16.17;;;;;;;1.47;100.00;99191.69;5160506;27;20123;-72
2023/01/14 11:38:21;;;;;;;40.55;14.85;;;;;;;1.27;100.00;99207.22;5159842;27;20050;-72
2023/01/14 11:43:50;;;;;;;39.20;15.20;;;;;;;1.37;100.00;99236.72;5159805;27;20049;-65
2023/01/14 11:46:18;;;;;;;65.90;15.57;;;;;;;0.86;100.00;99240.41;5159822;27;20047;-66
2023/01/14 11:48:56;;;;;;;41.40;15.38;;;;;;;0.93;100.00;99235.44;5159476;27;20058;-68
2023/01/14 11:51:24;;;;;;;54.25;19.58;;;;;;;1.21;100.00;99208.41;5159379;27;20042;-71
2023/01/14 11:53:53;;;;;;;49.13;16.52;;;;;;;1.06;100.00;99216.81;5159548;27;20408;-73